Main page
METAR-TAF:

METAR-TAF

Airports :

St Athan, Wales

MOD St Athan

latitude: 51-24N, longitude: 003-26W, elevation: 50 m

Current weather observation

The report was made 58 minutes ago, at 16:50 UTC
Wind 11 kt from the West
Temperature 10°C
Humidity 62%
Pressure 1017 hPa
Visibility 10 km or more

METAR: EGDX 281650Z AUTO 28011KT 9999 OVC050/// 10/03 Q1017

Time: 18:48 (17:48 UTC)

Forecast

The report was made 4 hours and 23 minutes ago, at 13:25 UTC
Forecast valid from 28 at 15 UTC to 28 at 18 UTC
Wind 10 kt from the West
Visibility 10 km or more
Few clouds at a height of 2000 ft
Broken clouds at a height of 4000 ft

TAF: EGDX 281325Z 2815/2818 27010KT 9999 FEW020 BKN040

Weather observations and forecasts of more than 4000 airports (METAR and TAF reports).

The available stations are represented by yellow and red dots on the map.

Hover mouse over dot to see the name of the station.

Then click to see weather observations and forecasts.

To change the map : click on the green buttons with a black cross to zoom in, on the green button with a dash to zoom out, or on the green arrows for adjacent maps.


METAR-TAF: